My webcam more information My webcam


Thunder radar more information blitzortung!


Rain radar more information rain snow radar


Visit our other weather sites:

Template documentation
and downloads

And another site



Nearby METAR Reports

   
KAVP - Albrightsville, PA
Updated: Apr 23 2017 2:54 pm
Clear  
Clear  
   Wind: NNW 6.9 mph
Wind: NNW 6.9 mph
Temperature: 66.2°F
Dew Point: 28.4°F
Humidity: 24%
Barometer: 30.04 inHg
Clouds: Clear
Visibility: 10 mi
Cloud details: Clear
KAVP 231854Z 33006KT 10SM CLR 19/M02 A3004 RMK AO2 SLP173 T01941022
KIWA - Apache Junction, AZ
Updated: Apr 23 2017 2:47 pm
Partly Cloudy  
Partly Cloudy  
   Wind: SSE 6.9 mph
Wind: SSE 6.9 mph
Temperature: 89.6°F
Dew Point: 28.4°F
Humidity: 11%
Barometer: 29.84 inHg
Clouds: Partly Cloudy
Visibility: 45 mi
Cloud details: Partly Cloudy 7620 m
KIWA 231847Z 16006KT 45SM SCT250 32/M02 A2984
KPKB - Blue Rock, OH
Updated: Apr 23 2017 2:53 pm
Clear  
Clear  
   Wind: East 10.4 mph
Wind: East 10.4 mph
Temperature: 66.2°F
Dew Point: 37.4°F
Humidity: 35%
Barometer: 30.03 inHg
Clouds: Clear
Visibility: 10 mi
Cloud details: Clear
KPKB 231853Z 08009KT 10SM CLR 19/03 A3003 RMK AO2 SLP166 T01890033 $
KHVN - Branford, CT
Updated: Apr 23 2017 2:53 pm
Partly Cloudy  
Partly Cloudy  
   Wind: SSW 11.5 mph
Wind: SSW 11.5 mph
Temperature: 55.4°F
Dew Point: 39.2°F
Humidity: 55%
Barometer: 30.08 inHg
Clouds: Partly Cloudy
Visibility: 10 mi
Cloud details: Partly Cloudy 7620 m
KHVN 231853Z 21010KT 10SM SCT250 13/04 A3008 RMK AO2 SLP184 T01330044
KPHX - Carefree, AZ
Updated: Apr 23 2017 2:51 pm
Mostly Cloudy  
Mostly Cloudy  
   Wind: East 5.8 mph
Wind: East 5.8 mph
Temperature: 91.4°F
Dew Point: 28.4°F
Humidity: 10%
Barometer: 29.79 inHg
Clouds: Mostly Cloudy
Visibility: 10 mi
Cloud details: Mostly Cloudy 7620 m
KPHX 231851Z 09005KT 10SM BKN250 33/M02 A2979 RMK AO2 SLP071 T03331017
 

Script developed by  Saratoga-weather.org Adapted for the template by  Weerstation Leuven

You find our weather info also at:

WeatherCloud

Weather Underground

Citizen Weather Observer Program (CWOP)

HAMweather, WeatherForYou, PWS Weather

Anything Weather